Time;durP1;ratioP1;P1;durP2;ratioP2;P2;SDS_P1;SDS_P2;PMS_P1;PMS_P2;Temp;Humidity;BMP_temperature;BMP_pressure;BME280_temperature;BME280_humidity;BME280_pressure;Samples;Min_cycle;Max_cycle;Signal;HPM_P1;HPM_P2
2023/02/27 00:00:03;;;;;;;26.85;10.98;;;;;;;12.89;47.45;94083.47;5070036;28;20024;-78
2023/02/27 00:02:29;;;;;;;21.92;9.85;;;;;;;12.80;47.46;94078.03;5065080;28;20028;-79
2023/02/27 00:04:56;;;;;;;20.55;9.48;;;;;;;12.76;47.20;94056.13;5077168;28;20027;-79
2023/02/27 00:07:24;;;;;;;21.67;9.13;;;;;;;12.68;47.56;94066.03;5073692;28;20029;-78
2023/02/27 00:09:51;;;;;;;21.25;8.57;;;;;;;12.64;47.25;94093.75;5047262;28;20028;-78
2023/02/27 00:12:16;;;;;;;21.38;8.30;;;;;;;12.62;47.06;94051.38;5062564;28;20021;-79
2023/02/27 00:14:42;;;;;;;22.75;10.02;;;;;;;12.61;47.08;94080.91;5065807;28;20501;-77
2023/02/27 00:17:07;;;;;;;23.20;8.57;;;;;;;12.49;47.13;94059.84;5065196;28;20127;-79
2023/02/27 00:19:32;;;;;;;20.55;9.27;;;;;;;12.46;47.20;94078.13;5067238;28;20036;-77
2023/02/27 00:21:58;;;;;;;23.58;7.15;;;;;;;12.38;46.49;94063.16;5065234;28;20479;-77
2023/02/27 00:24:23;;;;;;;17.33;6.60;;;;;;;12.39;46.58;94067.44;5061405;28;20106;-76
2023/02/27 00:26:49;;;;;;;22.58;7.93;;;;;;;12.37;46.81;94094.69;5069176;28;20886;-78
2023/02/27 00:29:14;;;;;;;17.65;6.85;;;;;;;12.36;46.30;94068.38;5064775;28;20031;-78
2023/02/27 00:31:40;;;;;;;15.23;6.95;;;;;;;12.48;46.29;94066.59;5076767;28;20028;-78
2023/02/27 00:34:05;;;;;;;19.95;8.20;;;;;;;12.48;46.48;94081.16;5070080;28;20040;-79
2023/02/27 00:36:30;;;;;;;19.02;7.13;;;;;;;12.49;46.42;94074.41;5071972;28;20032;-78
2023/02/27 00:38:56;;;;;;;19.23;7.18;;;;;;;12.55;46.06;94101.31;5088122;28;20150;-78
2023/02/27 00:41:21;;;;;;;20.95;9.15;;;;;;;12.61;46.46;94080.16;5065697;28;20025;-78
2023/02/27 00:43:46;;;;;;;23.30;8.13;;;;;;;12.62;46.37;94099.00;5071792;28;20032;-77
2023/02/27 00:46:12;;;;;;;19.83;7.68;;;;;;;12.58;46.52;94094.88;5073814;28;20467;-77
2023/02/27 00:48:37;;;;;;;18.70;7.57;;;;;;;12.61;46.51;94105.72;5083274;28;20028;-77
2023/02/27 00:51:03;;;;;;;16.90;8.02;;;;;;;12.55;46.80;94073.75;5081582;28;20124;-78
2023/02/27 00:53:29;;;;;;;22.92;7.55;;;;;;;12.58;46.81;94095.66;5069427;28;20039;-79
2023/02/27 00:55:55;;;;;;;19.75;7.38;;;;;;;12.57;46.77;94082.34;5068031;28;20066;-79
2023/02/27 00:58:20;;;;;;;21.88;7.72;;;;;;;12.55;46.88;94079.28;5077417;28;20024;-77
2023/02/27 01:00:45;;;;;;;25.35;8.73;;;;;;;12.47;47.21;94087.91;5080115;28;20462;-78
2023/02/27 01:03:11;;;;;;;22.65;9.10;;;;;;;12.43;47.50;94084.56;5051429;28;20474;-78
2023/02/27 01:05:36;;;;;;;24.63;9.13;;;;;;;12.34;47.84;94089.38;5082417;28;20032;-78
2023/02/27 01:08:02;;;;;;;19.63;6.75;;;;;;;12.27;47.84;94087.72;5080532;28;20032;-78
2023/02/27 01:10:27;;;;;;;19.85;6.22;;;;;;;12.29;48.15;94071.47;5065113;28;20028;-78
2023/02/27 01:12:53;;;;;;;24.13;8.75;;;;;;;12.29;48.15;94081.75;5066821;28;20099;-78
2023/02/27 01:15:18;;;;;;;16.90;6.10;;;;;;;12.15;48.92;94099.72;5066721;28;20110;-78
2023/02/27 01:17:44;;;;;;;20.17;6.10;;;;;;;12.13;49.00;94067.13;5068402;28;20044;-77
2023/02/27 01:20:11;;;;;;;18.83;6.57;;;;;;;12.11;49.03;94096.41;5064027;28;20431;-76
2023/02/27 01:22:37;;;;;;;18.85;7.75;;;;;;;12.16;49.09;94081.97;5065555;28;20032;-77
2023/02/27 01:25:03;;;;;;;21.98;7.15;;;;;;;12.19;48.98;94084.53;5070158;28;20116;-76
2023/02/27 01:27:28;;;;;;;22.35;6.45;;;;;;;12.18;49.37;94082.25;5078788;28;20178;-77
2023/02/27 01:29:54;;;;;;;18.08;6.72;;;;;;;12.20;49.30;94091.56;5065110;28;20033;-76
2023/02/27 01:32:19;;;;;;;17.17;5.97;;;;;;;12.23;49.00;94087.13;5065350;28;20028;-77
2023/02/27 01:34:45;;;;;;;18.92;6.15;;;;;;;12.27;49.09;94097.97;5077495;28;20036;-77
2023/02/27 01:37:10;;;;;;;17.83;6.30;;;;;;;12.22;49.10;94099.41;5069923;28;20043;-78
2023/02/27 01:39:36;;;;;;;20.58;6.53;;;;;;;12.27;48.71;94101.47;5076777;28;20043;-76
2023/02/27 01:42:02;;;;;;;19.42;6.68;;;;;;;12.26;48.83;94111.00;5067380;28;20054;-76
2023/02/27 01:44:29;;;;;;;18.67;6.22;;;;;;;12.30;48.87;94133.63;5065366;28;20047;-77
2023/02/27 01:46:55;;;;;;;13.32;5.40;;;;;;;12.34;49.01;94138.97;5076241;28;20388;-77
2023/02/27 01:49:24;;;;;;;16.20;6.25;;;;;;;12.21;49.25;94134.47;5067263;28;20032;-77
2023/02/27 01:51:51;;;;;;;20.27;7.82;;;;;;;12.18;49.19;94143.63;5064893;28;20028;-78
2023/02/27 01:54:21;;;;;;;19.73;7.07;;;;;;;12.11;49.35;94149.50;5068783;28;20076;-75
2023/02/27 01:56:47;;;;;;;15.27;7.82;;;;;;;12.14;49.04;94132.03;5082176;28;20112;-79
2023/02/27 01:59:14;;;;;;;19.85;6.47;;;;;;;12.19;49.19;94153.44;5067747;28;20569;-78
2023/02/27 02:01:39;;;;;;;21.02;6.65;;;;;;;12.30;49.02;94152.16;5075526;28;20116;-77
2023/02/27 02:04:17;;;;;;;20.17;8.07;;;;;;;12.37;48.94;94144.31;5074388;28;20107;-77
2023/02/27 02:06:52;;;;;;;19.58;6.53;;;;;;;12.45;48.81;94170.31;5077454;28;20815;-78
2023/02/27 02:09:18;;;;;;;15.93;6.55;;;;;;;12.52;48.78;94194.00;5064292;28;20016;-78
2023/02/27 02:11:43;;;;;;;23.33;6.53;;;;;;;12.46;49.07;94207.66;5064644;28;20492;-78
2023/02/27 02:14:09;;;;;;;20.27;5.47;;;;;;;12.49;50.30;94225.25;5084938;28;20020;-77
2023/02/27 02:17:00;;;;;;;20.67;6.57;;;;;;;12.46;51.67;94243.50;5080933;28;20031;-78
2023/02/27 02:19:53;;;;;;;24.15;5.15;;;;;;;12.12;56.78;94263.97;5059422;28;20055;-78
2023/02/27 02:22:43;;;;;;;2.95;0.40;;;;;;;11.10;58.71;94357.97;5082139;28;20478;-79
2023/02/27 02:25:29;;;;;;;3.67;1.10;;;;;;;10.68;60.93;94350.19;5074444;28;20449;-80
2023/02/27 02:28:08;;;;;;;3.42;1.00;;;;;;;10.23;60.80;94329.50;5068329;28;20036;-80
2023/02/27 02:30:40;;;;;;;2.92;0.75;;;;;;;10.19;61.50;94344.53;5065328;28;20037;-80
2023/02/27 02:33:38;;;;;;;3.40;0.50;;;;;;;10.08;62.33;94344.94;5083330;28;20028;-79
2023/02/27 02:36:16;;;;;;;3.88;1.05;;;;;;;10.03;62.63;94343.50;5070400;28;20047;-79
2023/02/27 02:38:47;;;;;;;2.92;0.82;;;;;;;10.03;63.59;94337.25;5063485;28;20067;-79
2023/02/27 02:41:44;;;;;;;3.80;0.80;;;;;;;10.15;63.43;94346.66;5080515;28;20040;-79
2023/02/27 02:44:33;;;;;;;1.27;0.70;;;;;;;10.19;64.39;94359.03;5065083;28;20044;-78
2023/02/27 02:47:09;;;;;;;5.13;2.50;;;;;;;10.06;61.63;94374.81;5072415;28;20114;-78
2023/02/27 02:49:48;;;;;;;7.40;3.70;;;;;;;9.71;61.21;94385.84;5084023;28;20129;-78
2023/02/27 02:52:27;;;;;;;10.07;4.82;;;;;;;9.37;61.78;94378.34;5084196;28;20020;-78
2023/02/27 02:55:00;;;;;;;8.70;4.95;;;;;;;9.26;61.66;94395.16;5071766;28;20032;-77
2023/02/27 02:57:32;;;;;;;8.50;5.18;;;;;;;9.18;61.61;94387.63;5063926;28;20024;-78
2023/02/27 03:00:13;;;;;;;9.60;5.57;;;;;;;8.98;59.91;94401.53;5076264;28;20496;-78
2023/02/27 03:02:44;;;;;;;8.88;5.28;;;;;;;8.75;58.98;94400.66;5051046;28;20036;-77
2023/02/27 03:05:21;;;;;;;8.60;5.80;;;;;;;8.49;59.55;94416.31;5062719;28;20048;-78
2023/02/27 03:07:49;;;;;;;8.18;5.15;;;;;;;8.27;59.76;94423.59;5067609;28;20029;-78
2023/02/27 03:10:20;;;;;;;8.95;5.15;;;;;;;8.05;60.77;94430.84;5071009;28;20052;-77
2023/02/27 03:12:53;;;;;;;8.95;5.03;;;;;;;7.86;61.01;94440.75;5062912;28;20105;-78
2023/02/27 03:15:27;;;;;;;9.05;4.70;;;;;;;7.59;61.72;94441.03;5070422;28;20031;-77
2023/02/27 03:18:16;;;;;;;7.00;4.88;;;;;;;7.48;62.88;94446.00;5084572;28;20354;-77
2023/02/27 03:20:45;;;;;;;7.90;4.55;;;;;;;7.36;62.92;94442.75;5083014;28;20028;-77
2023/02/27 03:23:15;;;;;;;9.63;5.32;;;;;;;7.24;63.50;94446.16;5075278;28;20106;-77
2023/02/27 03:25:45;;;;;;;9.05;4.45;;;;;;;7.08;63.57;94436.00;5062959;28;20459;-76
2023/02/27 03:28:14;;;;;;;8.35;5.30;;;;;;;7.07;63.70;94445.41;5065887;28;20130;-78
2023/02/27 03:30:45;;;;;;;7.85;4.82;;;;;;;7.00;64.18;94455.72;5062880;28;20032;-76
2023/02/27 03:33:28;;;;;;;8.30;5.15;;;;;;;6.93;64.22;94468.31;5067116;28;20028;-77
2023/02/27 03:36:19;;;;;;;7.90;4.30;;;;;;;6.87;64.39;94474.72;5066846;28;20024;-76
2023/02/27 03:38:53;;;;;;;7.18;4.00;;;;;;;6.82;64.23;94478.72;5057217;28;20450;-76
2023/02/27 03:41:28;;;;;;;7.47;4.20;;;;;;;6.76;64.42;94479.66;5070261;28;20070;-77
2023/02/27 03:44:24;;;;;;;6.68;4.20;;;;;;;6.81;64.13;94501.78;5068331;28;20032;-77
2023/02/27 03:46:49;;;;;;;7.63;4.03;;;;;;;6.89;64.33;94507.88;5081823;28;20036;-76
2023/02/27 03:49:15;;;;;;;7.45;3.95;;;;;;;6.81;63.99;94501.00;5070004;28;20029;-77
2023/02/27 03:51:41;;;;;;;7.15;4.50;;;;;;;6.75;64.36;94506.19;5063106;28;20025;-76
2023/02/27 03:54:15;;;;;;;9.88;4.72;;;;;;;6.58;64.56;94482.75;5064297;28;20407;-76
2023/02/27 03:56:44;;;;;;;7.90;4.45;;;;;;;6.45;65.57;94503.72;5066402;28;20168;-78
2023/02/27 03:59:10;;;;;;;7.60;4.50;;;;;;;6.31;65.24;94511.00;5072084;28;20029;-78
2023/02/27 04:01:35;;;;;;;7.60;4.07;;;;;;;6.27;65.71;94514.97;5064163;28;20423;-78
2023/02/27 04:04:09;;;;;;;7.82;3.75;;;;;;;6.21;65.89;94520.16;5062553;28;20028;-76
2023/02/27 04:09:34;;;;;;;7.07;4.10;;;;;;;6.04;66.18;94526.72;5065576;28;20043;-76
2023/02/27 04:12:12;;;;;;;6.75;3.88;;;;;;;6.21;65.78;94552.91;5075586;28;20025;-77
2023/02/27 04:14:43;;;;;;;6.53;3.97;;;;;;;6.26;65.41;94548.94;5076690;28;20036;-76
2023/02/27 04:17:22;;;;;;;7.40;4.30;;;;;;;6.45;65.21;94556.34;5068046;28;20490;-77
2023/02/27 04:20:18;;;;;;;6.68;3.67;;;;;;;6.59;64.53;94569.72;5068798;28;20141;-75
2023/02/27 04:22:47;;;;;;;6.03;3.80;;;;;;;6.64;64.13;94569.25;5081287;28;20403;-77
2023/02/27 04:25:29;;;;;;;6.43;3.90;;;;;;;6.65;64.53;94576.28;5074324;28;20031;-77
2023/02/27 04:28:20;;;;;;;6.05;3.17;;;;;;;6.61;64.13;94586.50;5070146;28;20032;-77
2023/02/27 04:30:46;;;;;;;5.95;3.42;;;;;;;6.46;64.83;94582.47;5063797;28;20044;-78
2023/02/27 04:33:19;;;;;;;6.18;3.10;;;;;;;6.30;65.19;94576.91;5071406;28;20098;-76
2023/02/27 04:35:57;;;;;;;5.07;3.00;;;;;;;6.04;65.40;94584.78;5079764;28;20476;-78
2023/02/27 04:38:34;;;;;;;5.22;2.95;;;;;;;5.92;66.10;94590.06;5067421;28;20119;-76
2023/02/27 04:41:12;;;;;;;6.35;3.08;;;;;;;5.83;66.44;94613.16;5067119;28;20035;-77
2023/02/27 04:43:40;;;;;;;5.95;3.40;;;;;;;5.82;66.68;94606.16;5075020;28;20035;-77
2023/02/27 04:46:07;;;;;;;6.13;3.20;;;;;;;5.81;67.06;94617.50;5071930;28;20028;-76
2023/02/27 04:48:37;;;;;;;6.65;3.35;;;;;;;5.74;67.49;94636.69;5064607;28;20039;-76
2023/02/27 04:51:11;;;;;;;5.18;2.63;;;;;;;5.70;67.34;94633.25;5074279;28;20031;-75
2023/02/27 04:53:39;;;;;;;;;;;;;;;5.72;67.50;94633.59;5067098;28;20033;-78
2023/02/27 04:56:10;;;;;;;4.03;2.40;;;;;;;5.65;67.67;94639.16;5068080;28;19923;-75
2023/02/27 04:58:43;;;;;;;3.50;1.70;;;;;;;5.60;67.71;94634.94;5076949;28;20031;-77
2023/02/27 05:01:11;;;;;;;;;;;;;;;5.63;67.61;94641.53;5070319;28;20089;-75
2023/02/27 05:03:44;;;;;;;4.07;2.15;;;;;;;5.63;67.35;94650.47;5085112;28;19969;-77
2023/02/27 05:06:10;;;;;;;6.13;2.63;;;;;;;5.64;67.38;94651.25;5082893;28;20627;-75
2023/02/27 05:08:40;;;;;;;2.95;1.98;;;;;;;5.53;67.61;94656.84;5066916;28;20048;-76
2023/02/27 05:11:14;;;;;;;3.47;1.85;;;;;;;5.64;67.51;94656.72;5066828;28;20020;-75
2023/02/27 05:13:46;;;;;;;3.40;2.38;;;;;;;5.75;67.31;94663.56;5065928;28;20470;-75
2023/02/27 05:16:27;;;;;;;3.88;2.20;;;;;;;5.83;66.97;94670.44;5065933;28;20594;-76
2023/02/27 05:18:53;;;;;;;3.47;2.20;;;;;;;5.91;66.71;94673.88;5083314;28;20031;-77
2023/02/27 05:21:33;;;;;;;4.38;2.55;;;;;;;5.94;65.98;94675.00;5059236;28;20046;-76
2023/02/27 05:24:21;;;;;;;4.28;2.13;;;;;;;5.95;66.27;94682.75;5066045;28;20043;-76
2023/02/27 05:27:11;;;;;;;4.72;2.30;;;;;;;5.94;66.14;94685.91;5063467;28;20032;-76
2023/02/27 05:29:51;;;;;;;3.17;2.10;;;;;;;5.93;65.99;94685.13;5066585;28;20032;-79
2023/02/27 05:32:38;;;;;;;5.13;2.67;;;;;;;5.89;66.08;94681.66;5079997;28;20033;-76
2023/02/27 05:35:06;;;;;;;5.15;2.80;;;;;;;5.88;65.99;94687.53;5075741;28;20036;-78
2023/02/27 05:37:34;;;;;;;3.55;2.03;;;;;;;5.80;66.28;94700.50;5079525;28;20426;-78
2023/02/27 05:40:07;;;;;;;5.40;3.20;;;;;;;5.74;66.53;94697.47;5070297;28;20032;-77
2023/02/27 05:42:37;;;;;;;5.63;2.67;;;;;;;5.67;66.26;94700.28;5083511;28;20024;-79
2023/02/27 05:45:13;;;;;;;4.45;2.85;;;;;;;5.57;66.96;94696.53;5066457;28;20048;-77
2023/02/27 05:47:41;;;;;;;5.07;2.72;;;;;;;5.60;66.71;94703.88;5077895;28;20040;-77
2023/02/27 05:50:12;;;;;;;4.57;2.65;;;;;;;5.67;66.47;94705.72;5066857;28;20039;-78
2023/02/27 05:52:39;;;;;;;4.95;3.08;;;;;;;5.70;66.40;94704.16;5066289;28;20036;-77
2023/02/27 05:55:10;;;;;;;5.97;2.95;;;;;;;5.76;65.88;94700.56;5069502;28;20036;-77
2023/02/27 05:57:36;;;;;;;5.68;2.67;;;;;;;5.71;66.09;94703.72;5066125;28;20028;-78
2023/02/27 06:00:07;;;;;;;5.57;2.70;;;;;;;5.58;66.42;94694.56;5068916;28;20478;-76
2023/02/27 06:02:33;;;;;;;5.30;2.95;;;;;;;5.58;66.14;94700.03;5066397;28;20383;-77
2023/02/27 06:04:59;;;;;;;4.18;2.60;;;;;;;5.51;65.88;94697.41;5065882;28;20379;-76
2023/02/27 06:07:24;;;;;;;3.92;2.45;;;;;;;5.56;65.94;94713.28;5065488;28;20037;-78
2023/02/27 06:09:50;;;;;;;5.35;3.00;;;;;;;5.54;65.46;94719.16;5065067;28;20084;-76
2023/02/27 06:12:16;;;;;;;4.25;2.78;;;;;;;5.57;65.21;94726.53;5065445;28;20086;-76
2023/02/27 06:14:41;;;;;;;4.22;3.13;;;;;;;5.64;64.70;94738.53;5063713;28;20025;-77
2023/02/27 06:17:07;;;;;;;5.05;2.92;;;;;;;5.72;63.98;94724.38;5066082;28;20479;-76
2023/02/27 06:19:32;;;;;;;4.28;3.08;;;;;;;5.82;63.80;94739.06;5063576;28;20074;-76
2023/02/27 06:21:57;;;;;;;4.82;3.25;;;;;;;5.84;63.51;94736.69;5065538;28;20108;-77
2023/02/27 06:24:24;;;;;;;4.72;3.28;;;;;;;5.79;63.73;94723.50;5065855;28;20496;-76
2023/02/27 06:26:49;;;;;;;5.15;3.33;;;;;;;5.82;63.59;94730.88;5064926;28;20467;-77
2023/02/27 06:29:14;;;;;;;6.13;3.65;;;;;;;5.77;63.70;94731.31;5066534;28;20024;-77
2023/02/27 06:31:40;;;;;;;4.88;3.47;;;;;;;5.80;63.87;94739.47;5063834;28;20050;-76
2023/02/27 06:34:05;;;;;;;5.63;3.75;;;;;;;5.81;64.22;94742.97;5066038;28;20028;-76
2023/02/27 06:36:31;;;;;;;5.43;3.47;;;;;;;5.88;63.95;94748.31;5063060;28;20111;-76
2023/02/27 06:38:56;;;;;;;5.38;3.38;;;;;;;5.97;63.56;94751.34;5066173;28;20017;-75
2023/02/27 06:41:22;;;;;;;7.68;4.13;;;;;;;5.98;63.50;94755.63;5065553;28;20024;-78
2023/02/27 06:43:48;;;;;;;7.68;4.72;;;;;;;6.03;63.39;94766.09;5063319;28;20036;-77
2023/02/27 06:46:13;;;;;;;7.15;4.05;;;;;;;6.11;63.01;94775.69;5066126;28;20401;-79
2023/02/27 06:48:39;;;;;;;6.40;4.30;;;;;;;6.17;62.69;94777.97;5066144;28;20036;-77
2023/02/27 06:51:04;;;;;;;5.75;3.90;;;;;;;6.27;62.42;94779.78;5065959;28;20660;-77
2023/02/27 06:53:29;;;;;;;7.28;4.55;;;;;;;6.29;61.96;94777.41;5064339;28;20025;-75
2023/02/27 06:55:55;;;;;;;7.57;4.10;;;;;;;6.40;61.63;94786.19;5064379;28;20033;-79
2023/02/27 06:58:20;;;;;;;5.13;4.00;;;;;;;6.44;61.43;94780.69;5063391;28;20115;-76
2023/02/27 07:00:46;;;;;;;5.43;3.50;;;;;;;6.55;60.76;94787.53;5064983;28;20086;-77
2023/02/27 07:03:11;;;;;;;18.13;9.40;;;;;;;6.64;60.56;94787.00;5063906;28;20509;-78
2023/02/27 07:05:37;;;;;;;7.25;4.65;;;;;;;6.67;60.24;94788.91;5062912;28;20040;-77
2023/02/27 07:08:02;;;;;;;10.73;5.93;;;;;;;6.79;60.20;94793.00;5065966;28;20112;-77
2023/02/27 07:10:28;;;;;;;8.45;5.50;;;;;;;6.87;59.65;94780.75;5062786;28;20028;-77
2023/02/27 07:12:54;;;;;;;7.15;4.20;;;;;;;7.04;59.26;94798.81;5065363;28;20028;-78
2023/02/27 07:15:19;;;;;;;7.32;4.88;;;;;;;7.07;59.47;94797.22;5062841;28;20024;-77
2023/02/27 07:17:45;;;;;;;9.18;4.22;;;;;;;7.07;59.51;94798.00;5046780;28;20040;-76
2023/02/27 07:20:10;;;;;;;10.32;4.70;;;;;;;7.03;59.51;94797.28;5063242;28;20016;-76
2023/02/27 07:22:37;;;;;;;6.85;4.43;;;;;;;6.98;59.67;94794.25;5062991;28;20051;-78
2023/02/27 07:25:03;;;;;;;4.57;2.70;;;;;;;6.99;59.81;94801.25;5064161;28;20033;-77
2023/02/27 07:27:28;;;;;;;4.55;2.53;;;;;;;7.10;59.39;94796.38;5064139;28;20031;-77
2023/02/27 07:29:53;;;;;;;3.80;2.70;;;;;;;7.26;59.02;94806.66;5063465;28;20035;-76
2023/02/27 07:32:19;;;;;;;5.28;2.88;;;;;;;7.43;58.41;94803.59;5064137;28;20016;-76
2023/02/27 07:34:45;;;;;;;5.65;3.00;;;;;;;7.55;58.24;94815.09;5065075;28;20082;-77
2023/02/27 07:37:10;;;;;;;4.55;3.08;;;;;;;7.64;58.21;94813.34;5064431;28;20028;-76
2023/02/27 07:39:35;;;;;;;5.63;2.90;;;;;;;7.81;58.12;94813.44;5062682;28;20439;-76
2023/02/27 07:42:01;;;;;;;3.78;2.47;;;;;;;7.82;57.93;94810.25;5063283;28;20021;-76
2023/02/27 07:44:26;;;;;;;5.63;3.10;;;;;;;7.55;58.00;94810.41;5063805;28;20158;-77
2023/02/27 07:46:52;;;;;;;4.07;3.08;;;;;;;7.80;57.53;94825.53;5063503;28;20108;-76
2023/02/27 07:49:17;;;;;;;4.82;2.85;;;;;;;7.85;57.80;94814.09;5062429;28;20160;-76
2023/02/27 07:51:42;;;;;;;4.82;3.13;;;;;;;7.88;57.77;94825.00;5065127;28;20086;-78
2023/02/27 07:54:08;;;;;;;4.78;3.50;;;;;;;8.13;57.28;94827.22;5067053;28;20375;-76
2023/02/27 07:56:34;;;;;;;3.03;2.42;;;;;;;8.17;56.98;94824.41;5063684;28;20033;-76
2023/02/27 07:58:59;;;;;;;4.22;3.25;;;;;;;8.36;56.47;94823.63;5064414;28;20135;-78
2023/02/27 08:01:25;;;;;;;3.53;2.50;;;;;;;8.49;55.82;94827.25;5064380;28;20024;-77
2023/02/27 08:03:51;;;;;;;4.57;3.25;;;;;;;8.66;55.47;94821.78;5063362;28;20098;-77
2023/02/27 08:06:17;;;;;;;5.13;3.50;;;;;;;9.02;54.79;94822.47;5062345;28;20033;-77
2023/02/27 08:08:42;;;;;;;4.00;2.80;;;;;;;9.21;53.64;94826.31;5064881;28;20443;-76
2023/02/27 08:11:07;;;;;;;3.05;2.15;;;;;;;9.21;53.66;94818.09;5063866;28;20035;-76
2023/02/27 08:13:33;;;;;;;4.95;2.78;;;;;;;9.36;53.48;94832.22;5064358;28;20029;-76
2023/02/27 08:15:58;;;;;;;4.50;2.72;;;;;;;9.44;53.63;94827.31;5064987;28;20020;-75
2023/02/27 08:18:24;;;;;;;4.78;3.03;;;;;;;9.50;53.57;94826.34;5064775;28;20108;-75
2023/02/27 08:20:49;;;;;;;3.78;2.80;;;;;;;9.58;53.26;94835.19;5046121;28;20181;-77
2023/02/27 08:23:15;;;;;;;4.57;3.25;;;;;;;9.63;52.76;94828.38;5063815;28;20375;-77
2023/02/27 08:25:40;;;;;;;4.88;3.08;;;;;;;9.89;52.44;94840.22;5063153;28;20021;-77
2023/02/27 08:28:05;;;;;;;6.10;3.00;;;;;;;9.91;52.34;94819.34;5063726;28;20130;-77
2023/02/27 08:30:31;;;;;;;5.00;3.03;;;;;;;10.04;51.94;94838.63;5063578;28;20368;-75
2023/02/27 08:32:56;;;;;;;4.32;2.40;;;;;;;10.15;51.43;94839.09;5063410;28;20426;-75
2023/02/27 08:35:22;;;;;;;4.28;2.85;;;;;;;10.48;51.05;94825.97;5062825;28;20036;-76
2023/02/27 08:37:48;;;;;;;3.22;2.55;;;;;;;10.58;51.26;94835.88;5062437;28;20031;-76
2023/02/27 08:40:14;;;;;;;4.25;2.60;;;;;;;10.75;50.85;94825.53;5063800;28;20025;-76
2023/02/27 08:42:40;;;;;;;8.95;4.55;;;;;;;10.96;50.13;94837.09;5064223;28;20023;-77
2023/02/27 08:45:06;;;;;;;6.72;3.83;;;;;;;11.21;49.46;94833.53;5063020;28;20040;-76
2023/02/27 08:47:31;;;;;;;5.13;3.15;;;;;;;11.38;48.58;94838.44;5063050;28;20112;-76
2023/02/27 08:49:58;;;;;;;5.00;2.95;;;;;;;11.69;47.91;94835.81;5062906;28;20115;-76
2023/02/27 08:52:23;;;;;;;10.50;4.72;;;;;;;12.04;47.66;94829.50;5064299;28;20056;-77
2023/02/27 08:54:48;;;;;;;13.07;5.80;;;;;;;12.17;47.23;94831.00;5065731;28;20605;-76
2023/02/27 08:57:14;;;;;;;8.15;4.28;;;;;;;12.33;47.17;94837.50;5068172;28;20036;-76
2023/02/27 08:59:39;;;;;;;5.10;3.10;;;;;;;12.74;46.54;94842.63;5068050;28;20027;-77
2023/02/27 09:02:05;;;;;;;4.88;3.03;;;;;;;13.04;45.23;94848.56;5065602;28;20036;-76
2023/02/27 09:04:30;;;;;;;3.83;2.70;;;;;;;13.28;44.98;94851.59;5067922;28;20034;-77
2023/02/27 09:06:56;;;;;;;6.35;2.92;;;;;;;13.46;44.48;94837.81;5065057;28;20024;-76
2023/02/27 09:09:22;;;;;;;3.60;2.70;;;;;;;13.45;44.67;94849.31;5066439;28;20622;-75
2023/02/27 09:11:49;;;;;;;3.72;2.70;;;;;;;13.93;43.73;94855.94;5065158;28;20038;-75
2023/02/27 09:14:14;;;;;;;4.20;2.60;;;;;;;14.37;43.10;94869.44;5065727;28;20033;-75
2023/02/27 09:16:40;;;;;;;5.78;3.30;;;;;;;14.74;42.14;94866.66;5066723;28;20031;-75
2023/02/27 09:19:05;;;;;;;5.13;3.50;;;;;;;15.13;41.39;94876.63;5066611;28;20028;-76
2023/02/27 09:21:31;;;;;;;5.32;4.03;;;;;;;15.35;40.88;94872.84;5067643;28;20023;-75
2023/02/27 09:23:57;;;;;;;6.10;3.40;;;;;;;15.43;40.06;94867.75;5064455;28;20418;-76
2023/02/27 09:26:26;;;;;;;4.63;3.17;;;;;;;15.45;40.18;94857.72;5067675;28;20031;-76
2023/02/27 09:28:51;;;;;;;6.45;2.97;;;;;;;15.53;40.00;94874.75;5066154;28;20028;-74
2023/02/27 09:31:17;;;;;;;6.43;4.05;;;;;;;15.44;39.95;94878.34;5067171;28;20020;-76
2023/02/27 09:33:43;;;;;;;6.45;4.18;;;;;;;15.56;40.32;94877.34;5064884;28;20029;-76
2023/02/27 09:36:09;;;;;;;9.27;3.05;;;;;;;15.45;40.40;94881.88;5065503;28;20039;-75
2023/02/27 09:38:35;;;;;;;5.40;3.63;;;;;;;15.62;40.09;94878.28;5067111;28;20024;-75
2023/02/27 09:41:01;;;;;;;4.25;3.28;;;;;;;15.65;39.63;94882.88;5064642;28;20491;-76
2023/02/27 09:43:29;;;;;;;6.45;4.70;;;;;;;15.66;40.16;94889.94;5067232;28;20051;-74
2023/02/27 09:45:56;;;;;;;6.00;3.80;;;;;;;15.81;39.84;94895.53;5064545;28;20087;-76
2023/02/27 09:48:40;;;;;;;5.38;3.40;;;;;;;15.86;39.41;94891.34;5067574;28;20048;-76
2023/02/27 09:51:05;;;;;;;5.25;3.83;;;;;;;15.90;39.39;94886.41;5065550;28;20103;-74
2023/02/27 09:53:36;;;;;;;5.50;3.03;;;;;;;16.07;39.29;94889.53;5066130;28;20567;-74
2023/02/27 09:56:25;;;;;;;4.97;3.00;;;;;;;16.13;38.90;94896.72;5048772;28;20188;-76
2023/02/27 09:59:21;;;;;;;9.57;3.55;;;;;;;16.42;38.66;94904.31;5064176;28;20047;-78
2023/02/27 10:02:05;;;;;;;6.50;3.83;;;;;;;16.70;37.91;94904.06;5066407;28;20031;-77
2023/02/27 10:04:39;;;;;;;;;;;;;;;17.07;37.07;94901.69;5067853;28;20036;-76
2023/02/27 10:07:18;;;;;;;5.00;3.28;;;;;;;17.14;37.13;94911.63;5064196;28;20283;-75
2023/02/27 10:09:51;;;;;;;5.22;2.95;;;;;;;17.70;35.58;94918.81;5065411;28;20035;-78
2023/02/27 10:12:26;;;;;;;4.95;3.15;;;;;;;17.49;35.87;94911.69;5064156;28;20024;-77
2023/02/27 10:15:01;;;;;;;6.45;4.45;;;;;;;17.43;35.33;94903.28;5064475;28;20059;-77
2023/02/27 10:17:43;;;;;;;4.72;3.05;;;;;;;17.92;35.17;94914.84;5066128;28;20403;-75
2023/02/27 10:20:16;;;;;;;7.10;4.30;;;;;;;17.75;34.64;94918.16;5063685;28;20505;-75
2023/02/27 10:22:44;;;;;;;8.52;3.60;;;;;;;17.42;35.69;94921.19;5066501;28;20021;-76
2023/02/27 10:25:15;;;;;;;5.50;3.00;;;;;;;18.56;34.09;94919.41;5063713;28;20036;-77
2023/02/27 10:27:42;;;;;;;4.75;3.10;;;;;;;19.21;33.27;94921.81;5047761;28;20025;-77
2023/02/27 10:30:17;;;;;;;5.38;3.00;;;;;;;22.25;28.71;94917.38;5064848;28;20039;-76
2023/02/27 10:32:43;;;;;;;3.90;3.00;;;;;;;22.80;27.58;94926.78;5064313;28;20514;-76
2023/02/27 10:35:16;;;;;;;6.28;3.78;;;;;;;24.68;25.12;94906.50;5065042;28;20188;-75
2023/02/27 10:37:48;;;;;;;8.60;3.10;;;;;;;26.23;23.56;94908.69;5064731;28;20049;-77
2023/02/27 10:40:16;;;;;;;6.00;3.75;;;;;;;28.01;22.11;94918.06;5064754;28;20402;-77
2023/02/27 10:42:42;;;;;;;6.72;3.28;;;;;;;29.41;20.39;94910.47;5063191;28;20410;-75
2023/02/27 10:45:13;;;;;;;3.25;2.15;;;;;;;30.54;18.43;94913.16;5065048;28;20040;-76
2023/02/27 10:47:39;;;;;;;4.20;2.40;;;;;;;31.24;18.37;94920.09;5065774;28;20040;-75
2023/02/27 10:50:38;;;;;;;4.35;3.10;;;;;;;32.74;16.24;94920.88;5063458;28;20029;-75
2023/02/27 10:53:15;;;;;;;7.50;4.10;;;;;;;31.86;16.86;94913.50;5065119;28;20098;-75
2023/02/27 10:55:44;;;;;;;6.95;3.28;;;;;;;32.80;16.28;94914.91;5063454;28;20029;-76
2023/02/27 10:58:17;;;;;;;5.55;3.15;;;;;;;33.32;15.85;94920.56;5065031;28;20035;-76
2023/02/27 11:00:46;;;;;;;3.55;3.08;;;;;;;34.02;15.46;94905.53;5064030;28;20028;-77
2023/02/27 11:03:20;;;;;;;4.22;3.03;;;;;;;34.18;15.19;94899.56;5062964;28;20028;-76
2023/02/27 11:05:52;;;;;;;6.60;3.65;;;;;;;34.63;15.22;94906.56;5063894;28;20044;-75
2023/02/27 11:08:28;;;;;;;6.28;3.83;;;;;;;34.55;14.77;94908.84;5064684;28;20016;-74
2023/02/27 11:10:55;;;;;;;6.25;4.57;;;;;;;34.06;14.93;94905.09;5063839;28;20028;-74
2023/02/27 11:13:24;;;;;;;5.25;3.85;;;;;;;34.57;14.51;94901.16;5064865;28;20030;-76
2023/02/27 11:16:04;;;;;;;6.25;3.78;;;;;;;36.06;13.90;94891.94;5062708;28;20067;-75
2023/02/27 11:18:29;;;;;;;6.30;3.28;;;;;;;36.71;13.02;94894.91;5065071;28;20031;-75
2023/02/27 11:21:13;;;;;;;7.15;4.63;;;;;;;36.83;13.19;94889.97;5063928;28;20032;-76
2023/02/27 11:24:18;;;;;;;4.78;3.55;;;;;;;37.01;12.82;94893.31;5064949;28;20541;-75
2023/02/27 11:26:55;;;;;;;7.10;3.28;;;;;;;35.83;13.85;94892.47;5058976;28;20032;-76
2023/02/27 11:29:20;;;;;;;6.25;3.72;;;;;;;33.86;15.43;94881.44;5062560;28;20033;-74
2023/02/27 11:31:52;;;;;;;5.35;3.40;;;;;;;33.12;15.69;94871.28;5065163;28;20027;-73
2023/02/27 11:34:24;;;;;;;4.68;2.90;;;;;;;31.39;17.25;94877.47;5064086;28;20040;-74
2023/02/27 11:36:53;;;;;;;4.75;3.78;;;;;;;29.63;18.90;94875.78;5064671;28;20028;-73
2023/02/27 11:39:22;;;;;;;6.47;4.18;;;;;;;28.38;20.14;94872.91;5063870;28;20063;-75
2023/02/27 11:41:47;;;;;;;6.93;4.60;;;;;;;29.46;19.23;94866.31;5063875;28;20479;-78
2023/02/27 11:44:16;;;;;;;8.68;4.30;;;;;;;27.68;21.26;94863.16;5063678;28;20124;-76
2023/02/27 11:46:42;;;;;;;10.35;4.80;;;;;;;26.43;22.30;94860.13;5062423;28;20456;-77
2023/02/27 11:49:30;;;;;;;6.88;4.88;;;;;;;27.30;21.53;94876.16;5064964;28;20024;-75
2023/02/27 11:52:06;;;;;;;6.82;4.30;;;;;;;25.66;22.73;94870.25;5062882;28;20024;-75